South Wheelock, Vermont
Current Conditions -  °F | °C
As of 2:35 PM on Friday 28 Nov 2014 (Local Time) from KCDA Reporting Station
Light Snow Light Snow  
Wind Chill: 18°   Ceiling: 3800
Heat Index: 24°   Visibility: 10mi
Dew Point: 14°   Wind: 5mph
Humidity: 67%   Direction: 240°WSW
Pressure: 30.03"   Gusts: NA
Location:  44.5541°N, 72.0612°W
Report Text: KCDA 281935Z AUTO 24004KT 10SM -SN SCT029 OVC038 M05/M10 A3003 RMK AO2 T10461098
Loading
Personal Weather Stations






























Interactive Weather Map New forecast layout! Learn more

10-Day Weather Forecast

Advertisements
Track Severe Weather on mobile